createdAt,value
2019-05-19T00:00:24.123Z,0.00
2019-05-19T00:01:24.037Z,0.00
2019-05-19T00:02:23.962Z,0.00
2019-05-19T00:03:23.887Z,0.00
2019-05-19T00:04:23.800Z,0.00
2019-05-19T00:05:23.714Z,0.00
2019-05-19T00:06:23.641Z,0.00
2019-05-19T00:07:23.562Z,0.00
2019-05-19T00:08:23.474Z,0.00
2019-05-19T00:09:23.399Z,0.00
2019-05-19T00:10:23.313Z,0.00
2019-05-19T00:11:23.237Z,0.00
2019-05-19T00:12:23.163Z,0.00
2019-05-19T00:13:23.080Z,0.00
2019-05-19T00:14:23.003Z,0.00
2019-05-19T00:15:22.917Z,0.00
2019-05-19T00:16:22.841Z,0.00
2019-05-19T00:17:22.750Z,0.00
2019-05-19T00:18:22.675Z,0.00
2019-05-19T00:19:26.887Z,0.00
2019-05-19T00:20:22.514Z,0.00
2019-05-19T00:21:22.439Z,0.00
2019-05-19T00:22:22.351Z,0.00
2019-05-19T00:23:22.276Z,0.00
2019-05-19T00:24:22.195Z,0.00
2019-05-19T00:25:22.138Z,0.00
2019-05-19T00:26:22.043Z,0.00
2019-05-19T00:27:21.951Z,0.00
2019-05-19T00:28:21.876Z,0.00
2019-05-19T00:29:21.793Z,0.00
2019-05-19T00:30:21.721Z,0.00
2019-05-19T00:31:21.627Z,0.00
2019-05-19T00:32:21.552Z,0.00
2019-05-19T00:33:21.476Z,0.00
2019-05-19T00:34:21.390Z,0.00
2019-05-19T00:35:21.337Z,0.00
2019-05-19T00:36:21.227Z,0.00
2019-05-19T00:37:21.169Z,0.00
2019-05-19T00:38:21.066Z,0.00
2019-05-19T00:39:21.000Z,0.00
2019-05-19T00:40:20.906Z,0.00
2019-05-19T00:41:20.860Z,0.00
2019-05-19T00:42:20.765Z,0.00
2019-05-19T00:43:20.665Z,0.00
2019-05-19T00:44:20.595Z,0.00
2019-05-19T00:45:20.503Z,0.00
2019-05-19T00:46:20.429Z,0.00
2019-05-19T00:47:20.341Z,0.00
2019-05-19T00:48:20.267Z,0.00
2019-05-19T00:49:20.183Z,0.00
2019-05-19T00:50:20.104Z,0.00
2019-05-19T00:51:20.028Z,0.00
2019-05-19T00:52:19.943Z,0.00
2019-05-19T00:53:19.872Z,0.00
2019-05-19T00:54:19.782Z,0.00
2019-05-19T00:55:19.705Z,0.00
2019-05-19T00:56:19.617Z,0.00
2019-05-19T00:57:19.582Z,0.00
2019-05-19T00:58:19.468Z,0.00
2019-05-19T00:59:19.380Z,0.00
2019-05-19T01:00:19.318Z,0.00
2019-05-19T01:01:19.218Z,0.00
2019-05-19T01:02:19.143Z,0.00
2019-05-19T01:03:19.055Z,0.00
2019-05-19T01:04:18.980Z,0.00
2019-05-19T01:05:20.735Z,0.00
2019-05-19T01:06:18.818Z,0.00
2019-05-19T01:07:18.731Z,0.00
2019-05-19T01:08:18.656Z,0.00
2019-05-19T01:09:18.592Z,0.00
2019-05-19T01:10:18.493Z,0.00
2019-05-19T01:11:18.422Z,0.00
2019-05-19T01:12:18.332Z,0.00
2019-05-19T01:13:18.256Z,0.00
2019-05-19T01:14:18.168Z,0.00
2019-05-19T01:15:18.094Z,0.00
2019-05-19T01:16:18.007Z,0.00
2019-05-19T01:17:17.930Z,0.00
2019-05-19T01:18:17.856Z,0.00
2019-05-19T01:19:17.771Z,0.00
2019-05-19T01:20:17.697Z,0.00
2019-05-19T01:21:17.607Z,0.00
2019-05-19T01:22:17.531Z,0.00
2019-05-19T01:23:17.446Z,0.00
2019-05-19T01:24:17.371Z,0.00
2019-05-19T01:25:17.284Z,0.00
2019-05-19T01:26:17.207Z,0.00
2019-05-19T01:27:17.122Z,0.00
2019-05-19T01:28:17.046Z,0.00
2019-05-19T01:29:16.958Z,0.00
2019-05-19T01:30:16.895Z,0.00
2019-05-19T01:31:16.810Z,0.00
2019-05-19T01:32:16.720Z,0.00
2019-05-19T01:33:16.647Z,0.00
2019-05-19T01:34:16.572Z,0.00
2019-05-19T01:35:16.483Z,0.00
2019-05-19T01:36:16.396Z,0.00
2019-05-19T01:37:16.321Z,0.00
2019-05-19T01:38:16.233Z,0.00
2019-05-19T01:39:16.159Z,0.00
2019-05-19T01:40:16.074Z,0.00
2019-05-19T01:41:15.997Z,0.00
2019-05-19T01:42:15.910Z,0.00
2019-05-19T01:43:15.834Z,0.00
2019-05-19T01:44:15.760Z,0.00
2019-05-19T01:45:15.678Z,0.00
2019-05-19T01:46:15.598Z,0.00
2019-05-19T01:47:15.510Z,0.00
2019-05-19T01:48:15.448Z,0.00
2019-05-19T01:49:15.349Z,0.00
2019-05-19T01:50:17.982Z,0.00
2019-05-19T01:51:15.185Z,0.00
2019-05-19T01:52:15.110Z,0.00
2019-05-19T01:53:15.023Z,0.00
2019-05-19T01:54:16.711Z,0.00
2019-05-19T01:55:14.861Z,0.00
2019-05-19T01:56:14.789Z,0.00
2019-05-19T01:57:14.709Z,0.00
2019-05-19T01:58:14.623Z,0.00
2019-05-19T01:59:14.549Z,0.00
2019-05-19T02:00:14.473Z,0.00
2019-05-19T02:01:14.385Z,0.00
2019-05-19T02:02:14.301Z,0.00
2019-05-19T02:03:14.225Z,0.00
2019-05-19T02:04:14.135Z,0.00
2019-05-19T02:05:14.061Z,0.00
2019-05-19T02:06:13.974Z,0.00
2019-05-19T02:07:13.898Z,0.00
2019-05-19T02:08:13.849Z,0.00
2019-05-19T02:09:13.737Z,0.00
2019-05-19T02:10:13.654Z,0.00
2019-05-19T02:11:13.578Z,0.00
2019-05-19T02:12:13.517Z,0.00
2019-05-19T02:13:13.411Z,0.00
2019-05-19T02:14:13.336Z,0.00
2019-05-19T02:15:13.250Z,0.00
2019-05-19T02:16:13.176Z,0.00
2019-05-19T02:17:13.091Z,0.00
2019-05-19T02:18:13.012Z,0.00
2019-05-19T02:19:12.926Z,0.00
2019-05-19T02:20:12.852Z,0.00
2019-05-19T02:21:12.765Z,0.00
2019-05-19T02:22:12.687Z,0.00
2019-05-19T02:23:12.601Z,0.00
2019-05-19T02:24:12.526Z,0.00
2019-05-19T02:25:12.440Z,0.00
2019-05-19T02:26:12.388Z,0.00
2019-05-19T02:27:12.288Z,0.00
2019-05-19T02:28:12.202Z,0.00
2019-05-19T02:29:12.126Z,0.00
2019-05-19T02:30:12.049Z,0.00
2019-05-19T02:31:11.978Z,0.00
2019-05-19T02:32:11.878Z,4.00
2019-05-19T02:33:11.804Z,4.00
2019-05-19T02:34:11.720Z,4.00
2019-05-19T02:35:11.638Z,4.00
2019-05-19T02:36:11.553Z,4.00
2019-05-19T02:37:11.490Z,4.00
2019-05-19T02:38:11.391Z,4.00
2019-05-19T02:39:11.315Z,8.00
2019-05-19T02:40:11.245Z,4.00
2019-05-19T02:41:11.162Z,8.00
2019-05-19T02:42:11.079Z,8.00
2019-05-19T02:43:10.990Z,8.00
2019-05-19T02:44:10.915Z,8.00
2019-05-19T02:45:10.835Z,12.00
2019-05-19T02:46:10.754Z,16.00
2019-05-19T02:47:10.665Z,16.00
2019-05-19T02:48:10.592Z,20.00
2019-05-19T02:49:10.510Z,20.00
2019-05-19T02:50:10.430Z,20.00
2019-05-19T02:51:10.341Z,24.00
2019-05-19T02:52:10.301Z,28.00
2019-05-19T02:53:10.189Z,32.00
2019-05-19T02:54:10.106Z,36.00
2019-05-19T02:55:10.029Z,40.00
2019-05-19T02:56:09.944Z,44.00
2019-05-19T02:57:09.875Z,52.00
2019-05-19T02:58:09.780Z,56.00
2019-05-19T02:59:09.750Z,64.00
2019-05-19T03:00:09.631Z,76.00
2019-05-19T03:01:09.541Z,84.00
2019-05-19T03:02:09.456Z,92.00
2019-05-19T03:03:09.380Z,100.00
2019-05-19T03:04:09.295Z,112.00
2019-05-19T03:05:09.219Z,124.00
2019-05-19T03:06:09.130Z,136.00
2019-05-19T03:07:09.062Z,152.00
2019-05-19T03:08:08.968Z,164.00
2019-05-19T03:09:08.895Z,176.00
2019-05-19T03:10:08.818Z,188.00
2019-05-19T03:11:08.737Z,196.00
2019-05-19T03:12:08.657Z,204.00
2019-05-19T03:13:08.569Z,212.00
2019-05-19T03:14:08.494Z,224.00
2019-05-19T03:15:08.407Z,232.00
2019-05-19T03:16:08.340Z,240.00
2019-05-19T03:17:08.256Z,252.00
2019-05-19T03:18:08.169Z,264.00
2019-05-19T03:19:08.082Z,276.00
2019-05-19T03:20:08.028Z,296.00
2019-05-19T03:21:11.228Z,316.00
2019-05-19T03:22:07.858Z,332.00
2019-05-19T03:23:07.758Z,352.00
2019-05-19T03:24:07.683Z,368.00
2019-05-19T03:25:07.596Z,392.00
2019-05-19T03:26:07.518Z,408.00
2019-05-19T03:27:07.443Z,420.00
2019-05-19T03:28:07.360Z,432.00
2019-05-19T03:29:07.282Z,444.00
2019-05-19T03:30:07.196Z,456.00
2019-05-19T03:31:07.133Z,472.00
2019-05-19T03:32:11.812Z,488.00
2019-05-19T03:33:06.983Z,504.00
2019-05-19T03:34:06.879Z,528.00
2019-05-19T03:35:06.798Z,552.00
2019-05-19T03:36:06.709Z,568.00
2019-05-19T03:37:06.635Z,588.00
2019-05-19T03:38:06.551Z,608.00
2019-05-19T03:39:06.477Z,620.00
2019-05-19T03:40:06.395Z,632.00
2019-05-19T03:41:06.309Z,636.00
2019-05-19T03:42:10.077Z,640.00
2019-05-19T03:43:06.146Z,656.00
2019-05-19T03:44:06.071Z,676.00
2019-05-19T03:45:05.985Z,712.00
2019-05-19T03:46:05.912Z,756.00
2019-05-19T03:47:05.833Z,816.00
2019-05-19T03:48:05.753Z,884.00
2019-05-19T03:49:05.665Z,948.00
2019-05-19T03:50:05.584Z,1004.00
2019-05-19T03:51:05.509Z,1056.00
2019-05-19T03:52:05.422Z,1092.00
2019-05-19T03:53:05.346Z,1132.00
2019-05-19T03:54:05.267Z,1172.00
2019-05-19T03:55:05.191Z,1192.00
2019-05-19T03:56:05.098Z,1204.00
2019-05-19T03:57:05.022Z,1208.00
2019-05-19T03:58:04.935Z,1196.00
2019-05-19T03:59:04.862Z,1208.00
2019-05-19T04:00:04.773Z,1240.00
2019-05-19T04:01:04.697Z,1272.00
2019-05-19T04:02:04.611Z,1308.00
2019-05-19T04:03:04.538Z,1332.00
2019-05-19T04:04:04.462Z,1368.00
2019-05-19T04:05:04.393Z,1384.00
2019-05-19T04:06:04.297Z,1404.00
2019-05-19T04:07:04.222Z,1448.00
2019-05-19T04:08:04.138Z,1516.00
2019-05-19T04:09:04.047Z,1580.00
2019-05-19T04:10:03.973Z,1692.00
2019-05-19T04:11:03.887Z,1780.00
2019-05-19T04:12:03.832Z,1820.00
2019-05-19T04:13:03.725Z,1860.00
2019-05-19T04:14:03.650Z,1868.00
2019-05-19T04:15:03.573Z,1856.00
2019-05-19T04:16:03.493Z,1808.00
2019-05-19T04:17:03.414Z,1744.00
2019-05-19T04:18:03.327Z,1688.00
2019-05-19T04:19:03.252Z,1696.00
2019-05-19T04:20:03.163Z,1712.00
2019-05-19T04:21:03.183Z,1760.00
2019-05-19T04:22:03.001Z,1788.00
2019-05-19T04:23:02.955Z,1812.00
2019-05-19T04:24:02.850Z,1900.00
2019-05-19T04:25:02.764Z,1952.00
2019-05-19T04:26:02.716Z,1992.00
2019-05-19T04:27:02.601Z,2044.00
2019-05-19T04:28:02.528Z,2216.00
2019-05-19T04:29:02.453Z,2336.00
2019-05-19T04:30:02.372Z,2420.00
2019-05-19T04:31:02.288Z,2480.00
2019-05-19T04:32:02.200Z,2512.00
2019-05-19T04:33:02.135Z,2472.00
2019-05-19T04:34:02.041Z,2416.00
2019-05-19T04:35:01.966Z,2468.00
2019-05-19T04:36:01.890Z,2520.00
2019-05-19T04:37:01.803Z,2636.00
2019-05-19T04:38:01.727Z,2724.00
2019-05-19T04:39:01.641Z,2768.00
2019-05-19T04:40:01.564Z,2776.00
2019-05-19T04:41:01.493Z,2864.00
2019-05-19T04:42:01.402Z,2928.00
2019-05-19T04:43:01.327Z,2964.00
2019-05-19T04:44:01.254Z,2948.00
2019-05-19T04:45:01.166Z,2892.00
2019-05-19T04:46:01.098Z,2928.00
2019-05-19T04:47:01.010Z,2880.00
2019-05-19T04:48:00.934Z,2924.00
2019-05-19T04:49:00.866Z,2956.00
2019-05-19T04:50:00.812Z,3016.00
2019-05-19T04:51:00.695Z,3024.00
2019-05-19T04:52:06.800Z,2992.00
2019-05-19T04:53:00.527Z,2948.00
2019-05-19T04:54:00.461Z,2940.00
2019-05-19T04:55:00.365Z,2944.00
2019-05-19T04:56:00.292Z,2960.00
2019-05-19T04:57:00.217Z,3048.00
2019-05-19T04:58:00.128Z,3072.00
2019-05-19T04:59:00.059Z,3124.00
2019-05-19T04:59:59.979Z,3212.00
2019-05-19T05:00:59.893Z,3332.00
2019-05-19T05:01:59.822Z,3444.00
2019-05-19T05:02:59.744Z,3568.00
2019-05-19T05:03:59.658Z,3680.00
2019-05-19T05:04:59.650Z,3796.00
2019-05-19T05:05:59.504Z,3932.00
2019-05-19T05:06:59.420Z,4076.00
2019-05-19T05:07:59.343Z,4236.00
2019-05-19T05:08:59.267Z,4416.00
2019-05-19T05:09:59.179Z,4552.00
2019-05-19T05:10:59.108Z,4668.00
2019-05-19T05:11:59.030Z,4744.00
2019-05-19T05:12:58.954Z,4788.00
2019-05-19T05:13:58.867Z,4820.00
2019-05-19T05:14:58.792Z,4792.00
2019-05-19T05:15:58.706Z,4736.00
2019-05-19T05:16:58.631Z,4676.00
2019-05-19T05:17:58.555Z,4620.00
2019-05-19T05:18:58.493Z,4548.00
2019-05-19T05:19:58.393Z,4536.00
2019-05-19T05:20:58.320Z,4612.00
2019-05-19T05:21:58.244Z,4664.00
2019-05-19T05:22:58.155Z,4724.00
2019-05-19T05:23:58.080Z,4824.00
2019-05-19T05:24:58.008Z,4892.00
2019-05-19T05:25:57.919Z,4948.00
2019-05-19T05:26:57.844Z,4968.00
2019-05-19T05:27:57.769Z,4900.00
2019-05-19T05:28:57.694Z,4684.00
2019-05-19T05:29:57.606Z,4376.00
2019-05-19T05:30:57.531Z,4084.00
2019-05-19T05:31:57.456Z,3788.00
2019-05-19T05:32:57.369Z,3652.00
2019-05-19T05:33:57.316Z,3576.00
2019-05-19T05:34:57.229Z,3540.00
2019-05-19T05:35:57.150Z,3592.00
2019-05-19T05:36:57.056Z,3748.00
2019-05-19T05:37:56.983Z,3928.00
2019-05-19T05:38:56.911Z,4224.00
2019-05-19T05:39:56.821Z,4520.00
2019-05-19T05:40:56.745Z,4644.00
2019-05-19T05:41:56.671Z,4648.00
2019-05-19T05:42:56.595Z,4736.00
2019-05-19T05:43:56.507Z,4812.00
2019-05-19T05:44:56.432Z,4896.00
2019-05-19T05:45:56.362Z,4992.00
2019-05-19T05:46:56.271Z,4892.00
2019-05-19T05:47:56.195Z,4644.00
2019-05-19T05:48:56.121Z,4532.00
2019-05-19T05:49:56.050Z,4480.00
2019-05-19T05:50:55.971Z,4544.00
2019-05-19T05:51:55.883Z,4604.00
2019-05-19T05:52:55.808Z,4652.00
2019-05-19T05:53:55.733Z,4696.00
2019-05-19T05:54:55.646Z,4688.00
2019-05-19T05:55:55.574Z,4644.00
2019-05-19T05:56:55.497Z,4716.00
2019-05-19T05:57:55.409Z,4628.00
2019-05-19T05:58:55.335Z,4452.00
2019-05-19T05:59:55.259Z,4208.00
2019-05-19T06:00:55.178Z,4428.00
2019-05-19T06:01:55.102Z,4760.00
2019-05-19T06:02:55.033Z,4296.00
2019-05-19T06:03:54.947Z,3660.00
2019-05-19T06:04:54.860Z,3396.00
2019-05-19T06:05:54.784Z,3248.00
2019-05-19T06:06:54.709Z,3200.00
2019-05-19T06:07:54.635Z,3172.00
2019-05-19T06:08:54.548Z,3160.00
2019-05-19T06:09:54.473Z,3136.00
2019-05-19T06:10:54.399Z,3056.00
2019-05-19T06:11:54.323Z,3028.00
2019-05-19T06:12:54.235Z,2996.00
2019-05-19T06:13:54.162Z,3048.00
2019-05-19T06:14:54.086Z,3080.00
2019-05-19T06:15:54.023Z,3076.00
2019-05-19T06:16:53.923Z,3020.00
2019-05-19T06:17:53.851Z,2968.00
2019-05-19T06:18:56.576Z,2968.00
2019-05-19T06:19:53.709Z,2860.00
2019-05-19T06:20:53.624Z,2720.00
2019-05-19T06:21:53.538Z,2784.00
2019-05-19T06:22:57.002Z,2904.00
2019-05-19T06:23:53.375Z,3188.00
2019-05-19T06:24:53.305Z,3228.00
2019-05-19T06:25:53.239Z,3064.00
2019-05-19T06:26:53.150Z,3208.00
2019-05-19T06:27:53.063Z,3344.00
2019-05-19T06:28:52.987Z,3280.00
2019-05-19T06:29:52.912Z,3184.00
2019-05-19T06:30:52.886Z,2936.00
2019-05-19T06:31:52.754Z,2960.00
2019-05-19T06:32:52.680Z,2968.00
2019-05-19T06:33:52.603Z,2968.00
2019-05-19T06:34:52.513Z,2992.00
2019-05-19T06:35:52.457Z,3376.00
2019-05-19T06:36:54.999Z,3428.00
2019-05-19T06:37:52.289Z,3524.00
2019-05-19T06:38:52.206Z,3636.00
2019-05-19T06:39:52.129Z,3304.00
2019-05-19T06:40:52.058Z,3408.00
2019-05-19T06:41:51.965Z,3352.00
2019-05-19T06:42:51.890Z,3436.00
2019-05-19T06:43:51.814Z,3140.00
2019-05-19T06:44:51.738Z,3228.00
2019-05-19T06:45:51.655Z,3396.00
2019-05-19T06:46:51.580Z,3504.00
2019-05-19T06:47:51.502Z,3584.00
2019-05-19T06:48:51.452Z,3616.00
2019-05-19T06:49:51.340Z,3668.00
2019-05-19T06:50:51.264Z,3912.00
2019-05-19T06:51:51.194Z,3772.00
2019-05-19T06:52:51.116Z,3804.00
2019-05-19T06:53:51.027Z,3896.00
2019-05-19T06:54:50.955Z,4184.00
2019-05-19T06:55:50.878Z,4072.00
2019-05-19T06:56:50.802Z,4220.00
2019-05-19T06:57:50.716Z,4588.00
2019-05-19T06:58:50.653Z,4872.00
2019-05-19T06:59:50.579Z,5204.00
2019-05-19T07:00:50.493Z,5340.00
2019-05-19T07:01:50.403Z,5900.00
2019-05-19T07:02:50.328Z,6840.00
2019-05-19T07:03:50.254Z,7540.00
2019-05-19T07:04:50.180Z,7884.00
2019-05-19T07:05:50.091Z,7368.00
2019-05-19T07:06:50.020Z,7184.00
2019-05-19T07:07:49.943Z,8496.00
2019-05-19T07:08:49.866Z,8460.00
2019-05-19T07:09:57.769Z,6668.00
2019-05-19T07:10:49.705Z,6172.00
2019-05-19T07:11:49.635Z,5892.00
2019-05-19T07:12:49.554Z,5632.00
2019-05-19T07:13:49.480Z,10336.00
2019-05-19T07:14:49.394Z,14380.00
2019-05-19T07:15:49.335Z,13652.00
2019-05-19T07:16:49.242Z,19424.00
2019-05-19T07:17:49.169Z,22176.00
2019-05-19T07:18:49.096Z,32192.00
2019-05-19T07:19:49.018Z,32576.00
2019-05-19T07:20:48.930Z,10860.00
2019-05-19T07:21:48.856Z,18880.00
2019-05-19T07:22:48.781Z,38976.00
2019-05-19T07:23:48.705Z,54400.00
2019-05-19T07:24:48.631Z,106208.00
2019-05-19T07:25:48.559Z,159232.00
2019-05-19T07:26:48.483Z,160576.00
2019-05-19T07:27:48.405Z,134656.00
2019-05-19T07:28:48.331Z,106912.00
2019-05-19T07:29:48.266Z,83008.00
2019-05-19T07:30:48.173Z,73248.00
2019-05-19T07:31:48.098Z,61856.00
2019-05-19T07:32:48.031Z,53536.00
2019-05-19T07:33:47.946Z,46976.00
2019-05-19T07:34:47.868Z,40544.00
2019-05-19T07:35:47.794Z,36800.00
2019-05-19T07:36:47.720Z,34080.00
2019-05-19T07:37:47.645Z,31456.00
2019-05-19T07:38:47.582Z,31456.00
2019-05-19T07:39:47.494Z,31360.00
2019-05-19T07:40:47.423Z,30624.00
2019-05-19T07:41:47.344Z,29952.00
2019-05-19T07:42:47.289Z,28576.00
2019-05-19T07:43:47.211Z,28032.00
2019-05-19T07:44:47.133Z,26592.00
2019-05-19T07:45:47.058Z,24640.00
2019-05-19T07:46:46.985Z,22400.00
2019-05-19T07:47:46.920Z,20192.00
2019-05-19T07:48:46.846Z,18176.00
2019-05-19T07:49:46.829Z,15776.00
2019-05-19T07:50:46.695Z,14512.00
2019-05-19T07:51:46.638Z,13596.00
2019-05-19T07:52:46.560Z,13712.00
2019-05-19T07:53:46.487Z,16156.00
2019-05-19T07:54:46.420Z,16424.00
2019-05-19T07:55:46.346Z,13432.00
2019-05-19T07:56:46.272Z,10452.00
2019-05-19T07:57:46.212Z,8784.00
2019-05-19T07:58:46.134Z,8376.00
2019-05-19T07:59:46.071Z,8296.00
2019-05-19T08:00:46.000Z,8252.00
2019-05-19T08:01:45.922Z,8208.00
2019-05-19T08:02:45.861Z,7984.00
2019-05-19T08:03:45.784Z,8232.00
2019-05-19T08:04:45.722Z,8200.00
2019-05-19T08:05:45.647Z,8256.00
2019-05-19T08:06:45.586Z,8200.00
2019-05-19T08:07:45.565Z,8220.00
2019-05-19T08:08:45.446Z,8256.00
2019-05-19T08:09:45.377Z,8232.00
2019-05-19T08:10:45.299Z,8244.00
2019-05-19T08:11:45.236Z,8200.00
2019-05-19T08:12:45.162Z,8072.00
2019-05-19T08:13:45.099Z,8344.00
2019-05-19T08:14:45.035Z,8316.00
2019-05-19T08:15:44.964Z,8552.00
2019-05-19T08:16:44.903Z,8644.00
2019-05-19T08:17:44.824Z,8652.00
2019-05-19T08:18:44.761Z,8720.00
2019-05-19T08:19:44.699Z,8684.00
2019-05-19T08:20:44.626Z,8544.00
2019-05-19T08:21:44.548Z,8712.00
2019-05-19T08:22:44.487Z,8852.00
2019-05-19T08:23:59.277Z,9040.00
2019-05-19T08:24:44.350Z,9064.00
2019-05-19T08:25:44.273Z,9312.00
2019-05-19T08:26:44.216Z,9452.00
2019-05-19T08:27:44.143Z,9468.00
2019-05-19T08:28:44.073Z,9584.00
2019-05-19T08:29:44.001Z,9692.00
2019-05-19T08:30:43.938Z,9748.00
2019-05-19T08:31:43.874Z,9860.00
2019-05-19T08:32:43.802Z,9840.00
2019-05-19T08:33:43.747Z,9908.00
2019-05-19T08:34:43.667Z,10064.00
2019-05-19T08:35:43.601Z,10084.00
2019-05-19T08:36:43.531Z,10032.00
2019-05-19T08:37:43.463Z,10124.00
2019-05-19T08:38:43.388Z,10236.00
2019-05-19T08:39:43.329Z,10264.00
2019-05-19T08:40:43.270Z,10376.00
2019-05-19T08:41:43.192Z,10404.00
2019-05-19T08:42:43.125Z,10508.00
2019-05-19T08:43:43.055Z,10832.00
2019-05-19T08:44:42.993Z,11024.00
2019-05-19T08:45:42.913Z,11112.00
2019-05-19T08:46:42.851Z,11344.00
2019-05-19T08:47:42.789Z,11400.00
2019-05-19T08:48:42.714Z,11576.00
2019-05-19T08:49:42.651Z,11700.00
2019-05-19T08:50:42.588Z,11860.00
2019-05-19T08:51:42.542Z,12064.00
2019-05-19T08:52:42.441Z,12108.00
2019-05-19T08:53:42.385Z,12544.00
2019-05-19T08:54:42.315Z,12772.00
2019-05-19T08:55:42.240Z,12640.00
2019-05-19T08:56:42.191Z,13068.00
2019-05-19T08:57:42.141Z,13396.00
2019-05-19T08:58:42.040Z,13524.00
2019-05-19T08:59:41.977Z,13596.00
2019-05-19T09:00:41.904Z,13552.00
2019-05-19T09:01:41.840Z,13076.00
2019-05-19T09:02:41.768Z,13844.00
2019-05-19T09:03:41.702Z,13544.00
2019-05-19T09:04:41.642Z,13948.00
2019-05-19T09:05:41.566Z,14384.00
2019-05-19T09:06:41.504Z,14536.00
2019-05-19T09:07:41.429Z,14864.00
2019-05-19T09:08:41.367Z,14852.00
2019-05-19T09:09:41.307Z,15016.00
2019-05-19T09:10:41.229Z,15076.00
2019-05-19T09:11:41.168Z,15192.00
2019-05-19T09:12:41.113Z,15560.00
2019-05-19T09:13:41.029Z,16108.00
2019-05-19T09:14:40.970Z,16456.00
2019-05-19T09:15:40.905Z,16800.00
2019-05-19T09:16:40.830Z,17280.00
2019-05-19T09:17:40.767Z,17696.00
2019-05-19T09:18:40.704Z,18144.00
2019-05-19T09:19:40.629Z,18496.00
2019-05-19T09:20:40.568Z,18816.00
2019-05-19T09:21:40.504Z,19264.00
2019-05-19T09:22:40.430Z,19936.00
2019-05-19T09:23:40.369Z,20832.00
2019-05-19T09:24:40.305Z,21536.00
2019-05-19T09:25:40.232Z,21408.00
2019-05-19T09:26:40.171Z,21696.00
2019-05-19T09:27:40.110Z,22176.00
2019-05-19T09:28:40.113Z,23008.00
2019-05-19T09:29:39.973Z,25632.00
2019-05-19T09:30:39.908Z,27552.00
2019-05-19T09:31:41.467Z,25536.00
2019-05-19T09:32:39.772Z,23168.00
2019-05-19T09:33:39.710Z,20960.00
2019-05-19T09:34:39.647Z,14292.00
2019-05-19T09:35:39.580Z,14272.00
2019-05-19T09:36:39.506Z,7904.00
2019-05-19T09:37:39.444Z,8408.00
2019-05-19T09:38:39.374Z,8512.00
2019-05-19T09:39:39.306Z,7860.00
2019-05-19T09:40:39.245Z,7736.00
2019-05-19T09:41:39.175Z,7884.00
2019-05-19T09:42:39.110Z,7872.00
2019-05-19T09:43:39.045Z,8388.00
2019-05-19T09:44:38.977Z,7720.00
2019-05-19T09:45:38.895Z,8456.00
2019-05-19T09:46:38.832Z,8012.00
2019-05-19T09:47:38.760Z,18180.00
2019-05-19T09:48:38.694Z,11588.00
2019-05-19T09:49:38.625Z,12332.00
2019-05-19T09:50:38.557Z,7676.00
2019-05-19T09:51:38.482Z,7804.00
2019-05-19T09:52:38.433Z,7512.00
2019-05-19T09:53:38.345Z,7436.00
2019-05-19T09:54:45.214Z,7428.00
2019-05-19T09:55:38.207Z,7364.00
2019-05-19T09:56:38.137Z,7748.00
2019-05-19T09:57:38.071Z,8532.00
2019-05-19T09:58:38.006Z,7552.00
2019-05-19T09:59:37.946Z,7468.00
2019-05-19T10:00:37.858Z,7452.00
2019-05-19T10:01:37.789Z,7508.00
2019-05-19T10:02:37.722Z,7456.00
2019-05-19T10:03:37.647Z,7452.00
2019-05-19T10:04:37.575Z,7428.00
2019-05-19T10:05:37.522Z,7396.00
2019-05-19T10:06:37.437Z,7456.00
2019-05-19T10:07:37.363Z,7500.00
2019-05-19T10:08:37.284Z,7552.00
2019-05-19T10:09:37.223Z,7560.00
2019-05-19T10:10:37.149Z,7512.00
2019-05-19T10:11:37.075Z,7524.00
2019-05-19T10:12:36.998Z,7596.00
2019-05-19T10:13:37.864Z,7772.00
2019-05-19T10:14:36.861Z,8136.00
2019-05-19T10:15:36.784Z,8652.00
2019-05-19T10:16:36.711Z,9260.00
2019-05-19T10:17:36.647Z,9840.00
2019-05-19T10:18:36.577Z,10080.00
2019-05-19T10:19:36.501Z,9856.00
2019-05-19T10:20:36.435Z,9320.00
2019-05-19T10:21:36.373Z,8772.00
2019-05-19T10:22:36.286Z,8420.00
2019-05-19T10:23:36.213Z,8200.00
2019-05-19T10:24:36.139Z,7992.00
2019-05-19T10:25:36.080Z,7936.00
2019-05-19T10:26:36.002Z,7884.00
2019-05-19T10:27:35.925Z,7908.00
2019-05-19T10:28:35.850Z,7948.00
2019-05-19T10:29:35.775Z,8020.00
2019-05-19T10:30:35.712Z,7948.00
2019-05-19T10:31:35.639Z,8036.00
2019-05-19T10:32:35.575Z,8244.00
2019-05-19T10:33:35.486Z,8968.00
2019-05-19T10:34:35.415Z,9984.00
2019-05-19T10:35:35.351Z,10708.00
2019-05-19T10:36:35.278Z,15772.00
2019-05-19T10:37:35.200Z,28704.00
2019-05-19T10:38:35.136Z,20960.00
2019-05-19T10:39:35.076Z,28320.00
2019-05-19T10:40:34.987Z,28864.00
2019-05-19T10:41:34.913Z,10208.00
2019-05-19T10:42:34.871Z,9188.00
2019-05-19T10:43:34.775Z,11800.00
2019-05-19T10:44:34.702Z,10428.00
2019-05-19T10:45:34.637Z,9948.00
2019-05-19T10:46:34.565Z,10528.00
2019-05-19T10:47:34.487Z,7280.00
2019-05-19T10:48:34.413Z,18976.00
2019-05-19T10:49:34.351Z,10596.00
2019-05-19T10:50:34.277Z,8352.00
2019-05-19T10:51:34.201Z,6220.00
2019-05-19T10:52:34.138Z,6380.00
2019-05-19T10:53:34.076Z,7920.00
2019-05-19T10:54:34.031Z,17856.00
2019-05-19T10:55:36.563Z,10236.00
2019-05-19T10:56:33.852Z,24640.00
2019-05-19T10:57:33.777Z,12300.00
2019-05-19T10:58:33.715Z,11784.00
2019-05-19T10:59:33.639Z,34144.00
2019-05-19T11:00:33.568Z,34112.00
2019-05-19T11:01:33.502Z,36288.00
2019-05-19T11:02:33.427Z,20480.00
2019-05-19T11:03:33.352Z,20064.00
2019-05-19T11:04:33.290Z,13812.00
2019-05-19T11:05:33.228Z,12384.00
2019-05-19T11:06:33.140Z,9892.00
2019-05-19T11:07:33.082Z,9092.00
2019-05-19T11:08:33.005Z,11744.00
2019-05-19T11:09:32.928Z,14828.00
2019-05-19T11:10:32.868Z,11628.00
2019-05-19T11:11:32.790Z,11716.00
2019-05-19T11:12:32.717Z,10252.00
2019-05-19T11:13:32.653Z,9748.00
2019-05-19T11:14:32.579Z,9980.00
2019-05-19T11:15:32.516Z,9228.00
2019-05-19T11:16:32.442Z,8872.00
2019-05-19T11:17:32.366Z,8464.00
2019-05-19T11:18:32.306Z,10844.00
2019-05-19T11:19:32.235Z,14704.00
2019-05-19T11:20:32.158Z,11100.00
2019-05-19T11:21:32.094Z,9108.00
2019-05-19T11:22:32.019Z,8752.00
2019-05-19T11:23:31.955Z,9272.00
2019-05-19T11:24:31.880Z,9392.00
2019-05-19T11:25:33.900Z,9800.00
2019-05-19T11:26:31.730Z,50944.00
2019-05-19T11:27:31.668Z,36384.00
2019-05-19T11:28:31.592Z,7736.00
2019-05-19T11:29:31.517Z,6816.00
2019-05-19T11:30:31.457Z,6244.00
2019-05-19T11:31:31.383Z,6932.00
2019-05-19T11:32:31.306Z,9456.00
2019-05-19T11:33:31.244Z,58272.00
2019-05-19T11:34:31.168Z,60160.00
2019-05-19T11:35:31.106Z,59840.00
2019-05-19T11:36:31.020Z,60160.00
2019-05-19T11:37:30.956Z,59008.00
2019-05-19T11:38:30.882Z,58912.00
2019-05-19T11:39:30.827Z,59264.00
2019-05-19T11:40:30.744Z,61312.00
2019-05-19T11:41:30.672Z,63520.00
2019-05-19T11:42:30.606Z,9376.00
2019-05-19T11:43:30.543Z,8388.00
2019-05-19T11:44:30.479Z,9076.00
2019-05-19T11:45:30.407Z,10376.00
2019-05-19T11:46:30.336Z,11392.00
2019-05-19T11:47:30.273Z,67168.00
2019-05-19T11:48:30.208Z,8556.00
2019-05-19T11:49:30.139Z,7300.00
2019-05-19T11:50:30.058Z,7416.00
2019-05-19T11:51:30.008Z,21408.00
2019-05-19T11:52:29.920Z,8720.00
2019-05-19T11:53:29.860Z,8168.00
2019-05-19T11:54:29.786Z,5992.00
2019-05-19T11:55:29.733Z,5408.00
2019-05-19T11:56:29.645Z,5748.00
2019-05-19T11:57:29.595Z,6472.00
2019-05-19T11:58:29.508Z,7664.00
2019-05-19T11:59:29.445Z,9840.00
2019-05-19T12:00:29.370Z,78240.00
2019-05-19T12:01:29.309Z,63872.00
2019-05-19T12:02:29.236Z,76672.00
2019-05-19T12:03:29.159Z,14024.00
2019-05-19T12:04:29.102Z,73280.00
2019-05-19T12:05:29.085Z,77600.00
2019-05-19T12:06:38.905Z,75776.00
2019-05-19T12:07:28.895Z,77056.00
2019-05-19T12:08:28.813Z,77312.00
2019-05-19T12:09:28.751Z,74336.00
2019-05-19T12:10:28.676Z,73920.00
2019-05-19T12:11:28.613Z,78720.00
2019-05-19T12:12:28.535Z,82528.00
2019-05-19T12:13:28.472Z,70976.00
2019-05-19T12:14:28.411Z,87968.00
2019-05-19T12:15:28.338Z,87552.00
2019-05-19T12:16:28.272Z,88576.00